KGJT

Grand Junction Regional Airport

Grand Junction, Colorado, USA
METAR KGJT 222053Z 29003KT 10SM SCT110 20/03 A3005 RMK AO2 SLP132 T02000028 56030
Observed Flight Rules
Oct-22 @ 20:53 UTC (58 minutes ago) Visual Flight Rules
Wind Visibility Clouds
290° at 3 knots 10 miles
  • Scattered at 11,000' AGL
Temperatures Readings
Current 20°C / 68°F
Dewpoint 3°C / 37°F
Humidity 33%
Altimeter 30.05" Hg
Pressure 1013.2 hPa
Elevation 1475
METAR KGJT 222053Z 29003KT 10SM SCT110 20/03 A3005 RMK AO2 SLP132 T02000028 56030
Observed Flight Rules
Oct-22 @ 20:53 UTC
(58 minutes ago)
VFR
Wind Visibility
290° at 3 knots 10 miles
Clouds
  • Scattered at 11,000' AGL
Temperature Dewpoint
20°C / 68°F 3°C / 37°F
Humidity Altimeter Pressure
33% 30.05" Hg 1013.2 hPa